createdAt,value
2023-02-11T00:00:48.522Z,102231.52
2023-02-11T00:01:53.357Z,102230.42
2023-02-11T00:02:57.902Z,102236.52
2023-02-11T00:04:02.278Z,102238.12
2023-02-11T00:05:06.580Z,102239.41
2023-02-11T00:06:10.887Z,102230.49
2023-02-11T00:07:15.245Z,102229.66
2023-02-11T00:08:19.580Z,102225.73
2023-02-11T00:09:23.871Z,102232.34
2023-02-11T00:10:28.189Z,102234.14
2023-02-11T00:11:32.523Z,102231.97
2023-02-11T00:12:36.847Z,102230.37
2023-02-11T00:13:41.129Z,102228.42
2023-02-11T00:14:45.411Z,102228
2023-02-11T00:15:50.538Z,102227.34
2023-02-11T00:16:55.367Z,102227.25
2023-02-11T00:17:59.782Z,102229.66
2023-02-11T00:19:04.112Z,102235.75
2023-02-11T00:20:09.355Z,102232.2
2023-02-11T00:21:13.628Z,102229.2
2023-02-11T00:22:17.927Z,102230.3
2023-02-11T00:23:22.247Z,102216.53
2023-02-11T00:24:26.562Z,102221.42
2023-02-11T00:25:30.994Z,102225.12
2023-02-11T00:26:35.284Z,102218.12
2023-02-11T00:27:39.567Z,102219.45
2023-02-11T00:28:43.885Z,102232.44
2023-02-11T00:29:48.466Z,102226.89
2023-02-11T00:30:53.085Z,102228.79
2023-02-11T00:31:57.732Z,102226.24
2023-02-11T00:33:02.146Z,102224.34
2023-02-11T00:34:08.938Z,102232.31
2023-02-11T00:35:14.261Z,102229.83
2023-02-11T00:36:18.533Z,102221.55
2023-02-11T00:37:22.807Z,102226.53
2023-02-11T00:38:27.089Z,102225.08
2023-02-11T00:39:31.384Z,102212.15
2023-02-11T00:40:35.692Z,102208.01
2023-02-11T00:41:39.996Z,102198.4
2023-02-11T00:42:44.288Z,102206.49
2023-02-11T00:43:48.594Z,102205.2
2023-02-11T00:44:53.019Z,102200.13
2023-02-11T00:45:57.469Z,102199.39
2023-02-11T00:47:01.799Z,102196.26
2023-02-11T00:48:06.106Z,102203.65
2023-02-11T00:49:10.519Z,102204.22
2023-02-11T00:50:14.873Z,102203.3
2023-02-11T00:51:19.172Z,102198.34
2023-02-11T00:52:23.460Z,102189.03
2023-02-11T00:53:27.753Z,102189.64
2023-02-11T00:54:32.044Z,102189.97
2023-02-11T00:55:36.420Z,102179.63
2023-02-11T00:56:40.741Z,102183.19
2023-02-11T00:57:45.050Z,102175.15
2023-02-11T00:58:49.457Z,102173.58
2023-02-11T00:59:53.758Z,102174.14
2023-02-11T01:00:58.125Z,102176.87
2023-02-11T01:02:02.553Z,102155.86
2023-02-11T01:03:06.871Z,102159.08
2023-02-11T01:04:11.143Z,102150.39
2023-02-11T01:05:15.529Z,102141.98
2023-02-11T01:06:19.907Z,102146.48
2023-02-11T01:07:24.208Z,102140.23
2023-02-11T01:08:28.605Z,102131.2
2023-02-11T01:09:32.919Z,102131.88
2023-02-11T01:10:37.229Z,102132.25
2023-02-11T01:11:41.546Z,102120.24
2023-02-11T01:12:45.846Z,102122.38
2023-02-11T01:13:50.195Z,102110.02
2023-02-11T01:14:54.487Z,102105.41
2023-02-11T01:15:59.044Z,102099.2
2023-02-11T01:17:03.517Z,102095.59
2023-02-11T01:18:07.906Z,102078.74
2023-02-11T01:19:12.480Z,102065.51
2023-02-11T01:20:16.888Z,102067.72
2023-02-11T01:21:21.191Z,102064.78
2023-02-11T01:22:25.521Z,102069.86
2023-02-11T01:23:29.797Z,102059.56
2023-02-11T01:24:34.111Z,102054.06
2023-02-11T01:25:38.422Z,102047.45
2023-02-11T01:26:42.729Z,102050.19
2023-02-11T01:27:47.011Z,102061.83
2023-02-11T01:28:51.483Z,102057.8
2023-02-11T01:29:55.772Z,102050.61
2023-02-11T01:31:00.200Z,102046.05
2023-02-11T01:32:04.731Z,102053.47
2023-02-11T01:33:09.372Z,102051.63
2023-02-11T01:34:13.636Z,102052.73
2023-02-11T01:35:17.913Z,102046.66
2023-02-11T01:36:22.328Z,102043.8
2023-02-11T01:37:26.604Z,102036.3
2023-02-11T01:38:30.943Z,102043.86
2023-02-11T01:39:35.252Z,102048.7
2023-02-11T01:40:39.580Z,102059.61
2023-02-11T01:41:44.055Z,102057.98
2023-02-11T01:42:51.889Z,102054.26
2023-02-11T01:43:56.273Z,102044.94
2023-02-11T01:45:00.584Z,102046.28
2023-02-11T01:46:04.967Z,102053.42
2023-02-11T01:47:12.292Z,102049.45
2023-02-11T01:48:16.568Z,102053.84
2023-02-11T01:49:21.065Z,102056.71
2023-02-11T01:50:26.483Z,102065.77
2023-02-11T01:51:30.760Z,102068.4
2023-02-11T01:52:35.048Z,102068.45
2023-02-11T01:53:39.332Z,102085.2
2023-02-11T01:54:43.626Z,102083.96
2023-02-11T01:55:48.634Z,102090.55
2023-02-11T01:56:53.489Z,102087.14
2023-02-11T01:57:57.779Z,102093.78
2023-02-11T01:59:02.101Z,102096.16
2023-02-11T02:00:06.422Z,102099.38
2023-02-11T02:01:10.767Z,102097.59
2023-02-11T02:02:15.056Z,102097.17
2023-02-11T02:03:19.469Z,102102.17
2023-02-11T02:04:23.865Z,102090.48
2023-02-11T02:05:30.745Z,102106.36
2023-02-11T02:06:35.049Z,102102.53
2023-02-11T02:07:39.391Z,102104.29
2023-02-11T02:08:43.723Z,102113.66
2023-02-11T02:09:47.986Z,102114.53
2023-02-11T02:10:52.296Z,102119.34
2023-02-11T02:11:56.654Z,102130.89
2023-02-11T02:13:00.949Z,102135.64
2023-02-11T02:14:05.357Z,102129.87
2023-02-11T02:15:09.633Z,102123.59
2023-02-11T02:16:14.024Z,102119.02
2023-02-11T02:17:18.427Z,102123.17
2023-02-11T02:18:22.714Z,102119.34
2023-02-11T02:19:26.992Z,102108.27
2023-02-11T02:20:31.306Z,102101.58
2023-02-11T02:21:35.572Z,102100.39
2023-02-11T02:22:39.878Z,102102.65
2023-02-11T02:23:44.265Z,102100.53
2023-02-11T02:24:48.575Z,102102.79
2023-02-11T02:25:53.913Z,102093.23
2023-02-11T02:26:58.226Z,102086.59
2023-02-11T02:28:02.634Z,102067.73
2023-02-11T02:29:07.054Z,102071.55
2023-02-11T02:30:11.346Z,102059.95
2023-02-11T02:31:15.669Z,102059.49
2023-02-11T02:32:20.090Z,102064.15
2023-02-11T02:33:24.545Z,102061.81
2023-02-11T02:34:28.829Z,102059.32
2023-02-11T02:35:33.128Z,102058.17
2023-02-11T02:36:37.462Z,102060.62
2023-02-11T02:37:41.854Z,102053.06
2023-02-11T02:38:46.185Z,102046.75
2023-02-11T02:39:50.488Z,102050.27
2023-02-11T02:40:54.901Z,102045.33
2023-02-11T02:41:59.194Z,102054.09
2023-02-11T02:43:03.538Z,102046.05
2023-02-11T02:44:07.842Z,102045.39
2023-02-11T02:45:12.140Z,102037.09
2023-02-11T02:46:16.602Z,102025
2023-02-11T02:47:20.931Z,102036.63
2023-02-11T02:48:27.575Z,102028.23
2023-02-11T02:49:31.868Z,102022.98
2023-02-11T02:50:36.181Z,102016.66
2023-02-11T02:51:40.515Z,102017.16
2023-02-11T02:52:44.925Z,102023.85
2023-02-11T02:53:49.220Z,102020.2
2023-02-11T02:54:53.515Z,102018.12
2023-02-11T02:55:57.822Z,102015.09
2023-02-11T02:57:02.093Z,102004.38
2023-02-11T02:58:06.416Z,101997.73
2023-02-11T02:59:10.759Z,102001.23
2023-02-11T03:00:15.099Z,102005.66
2023-02-11T03:01:19.391Z,101999.44
2023-02-11T03:02:23.681Z,101998.97
2023-02-11T03:03:28.011Z,101987.39
2023-02-11T03:04:32.331Z,101984.52
2023-02-11T03:05:36.657Z,101993.72
2023-02-11T03:06:40.922Z,102008.59
2023-02-11T03:07:45.281Z,102001.84
2023-02-11T03:08:49.566Z,102009.78
2023-02-11T03:09:53.924Z,102021.31
2023-02-11T03:10:58.239Z,102020.3
2023-02-11T03:12:02.548Z,102025.66
2023-02-11T03:13:06.850Z,102008.7
2023-02-11T03:14:11.152Z,102012.78
2023-02-11T03:15:15.465Z,102006.5
2023-02-11T03:16:19.883Z,102011.94
2023-02-11T03:17:24.358Z,101998.19
2023-02-11T03:18:28.670Z,102009.13
2023-02-11T03:19:32.978Z,102004.74
2023-02-11T03:20:37.273Z,101996.71
2023-02-11T03:21:41.603Z,101993.06
2023-02-11T03:22:45.876Z,102000.97
2023-02-11T03:23:50.187Z,102010.77
2023-02-11T03:24:54.474Z,102007.72
2023-02-11T03:25:58.816Z,102007.3
2023-02-11T03:27:03.210Z,102006.37
2023-02-11T03:28:07.692Z,102004.94
2023-02-11T03:29:12.060Z,101998.71
2023-02-11T03:30:16.364Z,102000.24
2023-02-11T03:31:20.882Z,101992.58
2023-02-11T03:32:25.510Z,101987.95
2023-02-11T03:33:29.826Z,101979.75
2023-02-11T03:34:34.128Z,101988.39
2023-02-11T03:35:38.434Z,101975.31
2023-02-11T03:36:42.763Z,101979.19
2023-02-11T03:37:47.085Z,101974.92
2023-02-11T03:38:51.353Z,101972.8
2023-02-11T03:39:55.671Z,101970.73
2023-02-11T03:40:59.997Z,101965.02
2023-02-11T03:42:04.312Z,101963.31
2023-02-11T03:43:08.609Z,101959.61
2023-02-11T03:44:12.898Z,101970.13
2023-02-11T03:45:17.209Z,101961.56
2023-02-11T03:46:21.671Z,101965.49
2023-02-11T03:47:26.128Z,101965.13
2023-02-11T03:48:30.479Z,101957.79
2023-02-11T03:49:34.794Z,101956.14
2023-02-11T03:50:39.065Z,101950.55
2023-02-11T03:51:43.376Z,101947.86
2023-02-11T03:52:47.664Z,101942.98
2023-02-11T03:53:51.977Z,101942.2
2023-02-11T03:54:56.311Z,101932.64
2023-02-11T03:56:00.705Z,101938.44
2023-02-11T03:57:05.062Z,101932.27
2023-02-11T03:58:09.350Z,101935.56
2023-02-11T03:59:13.680Z,101935.2
2023-02-11T04:00:18.008Z,101933.34
2023-02-11T04:01:22.421Z,101928.64
2023-02-11T04:02:26.845Z,101924.69
2023-02-11T04:03:31.304Z,101930.41
2023-02-11T04:04:35.784Z,101913.05
2023-02-11T04:05:40.085Z,101923.7
2023-02-11T04:06:44.441Z,101920.44
2023-02-11T04:07:48.726Z,101914.12
2023-02-11T04:08:53.027Z,101919.89
2023-02-11T04:09:57.448Z,101909.73
2023-02-11T04:11:01.744Z,101915.51
2023-02-11T04:12:06.042Z,101910.3
2023-02-11T04:13:11.114Z,101915.56
2023-02-11T04:14:15.448Z,101905.92
2023-02-11T04:15:19.747Z,101914.92
2023-02-11T04:16:24.123Z,101909.06
2023-02-11T04:17:28.449Z,101911.33
2023-02-11T04:18:32.748Z,101897.44
2023-02-11T04:19:37.062Z,101896.97
2023-02-11T04:20:41.346Z,101892.95
2023-02-11T04:21:45.656Z,101885.39
2023-02-11T04:22:49.988Z,101890.13
2023-02-11T04:23:54.335Z,101877.81
2023-02-11T04:24:58.636Z,101884.19
2023-02-11T04:26:03.106Z,101881.94
2023-02-11T04:27:07.449Z,101885.11
2023-02-11T04:28:11.857Z,101884.97
2023-02-11T04:29:16.232Z,101881.02
2023-02-11T04:30:20.513Z,101871.37
2023-02-11T04:31:25.167Z,101875.3
2023-02-11T04:32:29.755Z,101870.03
2023-02-11T04:33:34.142Z,101873.96
2023-02-11T04:34:38.441Z,101869.72
2023-02-11T04:35:42.743Z,101873.98
2023-02-11T04:36:47.017Z,101867.71
2023-02-11T04:37:51.297Z,101868.63
2023-02-11T04:38:55.591Z,101868.08
2023-02-11T04:39:59.890Z,101864.11
2023-02-11T04:41:04.183Z,101870.44
2023-02-11T04:42:08.485Z,101874.45
2023-02-11T04:43:12.784Z,101873.38
2023-02-11T04:44:17.119Z,101877.25
2023-02-11T04:45:21.543Z,101868.8
2023-02-11T04:46:25.969Z,101880.84
2023-02-11T04:47:30.471Z,101867.09
2023-02-11T04:48:34.759Z,101866.38
2023-02-11T04:49:39.100Z,101863.95
2023-02-11T04:50:43.389Z,101847.95
2023-02-11T04:51:50.398Z,101856.59
2023-02-11T04:52:54.726Z,101836.57
2023-02-11T04:53:59.037Z,101857.92
2023-02-11T04:55:03.375Z,101857.37
2023-02-11T04:56:07.746Z,101843.2
2023-02-11T04:57:12.080Z,101853.91
2023-02-11T04:58:16.379Z,101852.27
2023-02-11T04:59:20.703Z,101853.61
2023-02-11T05:00:24.995Z,101853.55
2023-02-11T05:01:29.407Z,101863.33
2023-02-11T05:02:33.814Z,101855.3
2023-02-11T05:03:38.096Z,101852.27
2023-02-11T05:04:42.399Z,101855.67
2023-02-11T05:05:46.689Z,101852.32
2023-02-11T05:06:51.068Z,101855.73
2023-02-11T05:07:55.419Z,101847.31
2023-02-11T05:08:59.719Z,101855.73
2023-02-11T05:10:04.002Z,101857.23
2023-02-11T05:11:08.317Z,101854.09
2023-02-11T05:12:13.652Z,101853.55
2023-02-11T05:13:17.953Z,101861.17
2023-02-11T05:14:22.260Z,101857.97
2023-02-11T05:15:26.572Z,101856.16
2023-02-11T05:16:30.875Z,101860.34
2023-02-11T05:17:35.246Z,101846.6
2023-02-11T05:18:39.556Z,101851.85
2023-02-11T05:19:43.851Z,101841.44
2023-02-11T05:20:48.119Z,101816.77
2023-02-11T05:22:03.875Z,101826.19
2023-02-11T05:23:08.194Z,101829.31
2023-02-11T05:24:12.489Z,101830.8
2023-02-11T05:25:16.770Z,101805.83
2023-02-11T05:26:21.100Z,101818.26
2023-02-11T05:27:25.397Z,101816.58
2023-02-11T05:28:29.939Z,101814.73
2023-02-11T05:29:34.376Z,101811.07
2023-02-11T05:30:38.800Z,101814.52
2023-02-11T05:31:43.242Z,101819.17
2023-02-11T05:32:47.553Z,101822.57
2023-02-11T05:33:51.848Z,101817.5
2023-02-11T05:34:56.135Z,101817.86
2023-02-11T05:36:00.560Z,101802.95
2023-02-11T05:37:04.949Z,101804.59
2023-02-11T05:38:09.267Z,101812.99
2023-02-11T05:39:13.565Z,101815.17
2023-02-11T05:40:17.854Z,101811.08
2023-02-11T05:41:22.138Z,101808.46
2023-02-11T05:42:26.481Z,101805
2023-02-11T05:43:30.780Z,101797.25
2023-02-11T05:44:35.108Z,101801.63
2023-02-11T05:45:39.554Z,101799.99
2023-02-11T05:46:44.056Z,101800.2
2023-02-11T05:47:48.429Z,101805.48
2023-02-11T05:48:52.696Z,101811.36
2023-02-11T05:49:56.993Z,101814.45
2023-02-11T05:51:01.305Z,101810.08
2023-02-11T05:52:05.635Z,101797.64
2023-02-11T05:53:10.123Z,101809.45
2023-02-11T05:54:14.911Z,101797.66
2023-02-11T05:55:19.506Z,101801.38
2023-02-11T05:56:23.820Z,101793.52
2023-02-11T05:57:28.150Z,101798.07
2023-02-11T05:58:32.438Z,101797.87
2023-02-11T05:59:36.716Z,101796.73
2023-02-11T06:00:41.000Z,101784.38
2023-02-11T06:01:45.332Z,101794.53
2023-02-11T06:02:49.836Z,101782.44
2023-02-11T06:03:54.404Z,101779.46
2023-02-11T06:04:58.798Z,101792.73
2023-02-11T06:06:03.080Z,101792.01
2023-02-11T06:07:07.363Z,101803
2023-02-11T06:08:11.660Z,101797.44
2023-02-11T06:09:15.940Z,101800.44
2023-02-11T06:10:20.271Z,101798.8
2023-02-11T06:11:24.588Z,101798.35
2023-02-11T06:12:28.886Z,101800.88
2023-02-11T06:13:33.169Z,101800.47
2023-02-11T06:14:37.486Z,101789.03
2023-02-11T06:15:41.919Z,101781.1
2023-02-11T06:16:46.326Z,101789.3
2023-02-11T06:17:50.626Z,101781.88
2023-02-11T06:18:54.956Z,101802.09
2023-02-11T06:19:59.249Z,101781.72
2023-02-11T06:21:03.574Z,101776.01
2023-02-11T06:22:07.896Z,101781
2023-02-11T06:23:12.643Z,101777.97
2023-02-11T06:24:44.253Z,101769.52
2023-02-11T06:26:05.018Z,101782.61
2023-02-11T06:27:09.370Z,101779.06
2023-02-11T06:28:13.850Z,101789.42
2023-02-11T06:29:18.439Z,101796.33
2023-02-11T06:30:22.694Z,101802.56
2023-02-11T06:31:27.196Z,101799.99
2023-02-11T06:32:47.779Z,101801.03
2023-02-11T06:33:52.309Z,101806.13
2023-02-11T06:34:56.599Z,101804.7
2023-02-11T06:36:00.898Z,101804.58
2023-02-11T06:37:05.225Z,101799.84
2023-02-11T06:38:09.521Z,101795.82
2023-02-11T06:39:13.819Z,101788.34
2023-02-11T06:40:18.162Z,101809.78
2023-02-11T06:41:22.481Z,101795.46
2023-02-11T06:42:26.782Z,101798.14
2023-02-11T06:43:31.086Z,101789.53
2023-02-11T06:44:35.419Z,101769.02
2023-02-11T06:45:39.738Z,101770.42
2023-02-11T06:46:44.130Z,101780.46
2023-02-11T06:47:48.752Z,101772.93
2023-02-11T06:48:53.044Z,101784.01
2023-02-11T06:49:57.326Z,101779.94
2023-02-11T06:51:01.652Z,101776.13
2023-02-11T06:52:05.956Z,101774.78
2023-02-11T06:53:10.239Z,101776.01
2023-02-11T06:54:14.640Z,101776.84
2023-02-11T06:55:18.915Z,101777.34
2023-02-11T06:56:23.212Z,101781.22
2023-02-11T06:57:27.504Z,101787.35
2023-02-11T06:58:31.821Z,101784.5
2023-02-11T06:59:36.131Z,101788.99
2023-02-11T07:00:40.429Z,101788.94
2023-02-11T07:01:44.938Z,101792.45
2023-02-11T07:02:49.447Z,101813
2023-02-11T07:03:53.812Z,101801.35
2023-02-11T07:04:58.106Z,101789.77
2023-02-11T07:06:02.380Z,101777.8
2023-02-11T07:07:06.699Z,101790.27
2023-02-11T07:08:10.987Z,101785.33
2023-02-11T07:09:15.327Z,101787.66
2023-02-11T07:10:19.603Z,101802.45
2023-02-11T07:11:23.893Z,101788.34
2023-02-11T07:12:28.210Z,101786.58
2023-02-11T07:13:32.500Z,101787.5
2023-02-11T07:14:36.837Z,101777.7
2023-02-11T07:15:41.123Z,101796.58
2023-02-11T07:16:45.439Z,101785.23
2023-02-11T07:17:49.732Z,101775.8
2023-02-11T07:18:54.035Z,101783.95
2023-02-11T07:19:58.414Z,101788.06
2023-02-11T07:21:02.695Z,101787.14
2023-02-11T07:22:06.982Z,101790.54
2023-02-11T07:23:11.257Z,101792.66
2023-02-11T07:24:15.599Z,101792.09
2023-02-11T07:25:19.882Z,101789.35
2023-02-11T07:26:24.171Z,101773.51
2023-02-11T07:27:28.463Z,101778.06
2023-02-11T07:28:33.017Z,101786.34
2023-02-11T07:29:37.486Z,101788.82
2023-02-11T07:30:41.811Z,101783.41
2023-02-11T07:31:46.442Z,101783.45
2023-02-11T07:32:50.959Z,101766.27
2023-02-11T07:33:55.331Z,101772.77
2023-02-11T07:35:00.271Z,101761.48
2023-02-11T07:36:04.779Z,101766.16
2023-02-11T07:37:09.079Z,101751.77
2023-02-11T07:38:13.394Z,101754.71
2023-02-11T07:39:17.712Z,101746.19
2023-02-11T07:40:22.153Z,101761.09
2023-02-11T07:41:26.492Z,101747.67
2023-02-11T07:42:30.785Z,101749.38
2023-02-11T07:43:35.092Z,101747.56
2023-02-11T07:44:41.651Z,101758.7
2023-02-11T07:45:45.935Z,101762.16
2023-02-11T07:46:50.485Z,101757.3
2023-02-11T07:47:55.000Z,101757.3
2023-02-11T07:48:59.291Z,101756.5
2023-02-11T07:50:03.881Z,101762.37
2023-02-11T07:51:08.258Z,101757.2
2023-02-11T07:52:12.580Z,101750.45
2023-02-11T07:53:16.971Z,101751.28
2023-02-11T07:54:21.265Z,101759.89
2023-02-11T07:55:25.564Z,101762.52
2023-02-11T07:56:29.858Z,101750.24
2023-02-11T07:57:34.168Z,101759.41
2023-02-11T07:58:38.559Z,101747.34
2023-02-11T07:59:42.824Z,101744.31
2023-02-11T08:00:47.158Z,101742.05
2023-02-11T08:01:51.679Z,101742.95
2023-02-11T08:02:56.059Z,101743.93
2023-02-11T08:04:00.397Z,101736.45
2023-02-11T08:05:04.716Z,101728.47
2023-02-11T08:06:09.025Z,101724.5
2023-02-11T08:07:13.329Z,101727.1
2023-02-11T08:08:17.603Z,101730.98
2023-02-11T08:09:21.874Z,101742.2
2023-02-11T08:10:26.186Z,101744.23
2023-02-11T08:11:30.730Z,101742.17
2023-02-11T08:12:35.046Z,101733.45
2023-02-11T08:13:39.331Z,101736.4
2023-02-11T08:14:43.637Z,101748.22
2023-02-11T08:15:48.092Z,101744.05
2023-02-11T08:16:53.124Z,101748.08
2023-02-11T08:17:57.540Z,101752.95
2023-02-11T08:19:01.867Z,101750.48
2023-02-11T08:20:06.221Z,101751.26
2023-02-11T08:21:11.018Z,101758.59
2023-02-11T08:22:15.319Z,101755.37
2023-02-11T08:23:19.635Z,101763.86
2023-02-11T08:24:23.913Z,101764.22
2023-02-11T08:25:28.233Z,101775.56
2023-02-11T08:26:32.608Z,101772.88
2023-02-11T08:27:36.899Z,101773.75
2023-02-11T08:28:41.165Z,101770.27
2023-02-11T08:29:45.463Z,101768.05
2023-02-11T08:30:50.584Z,101776.1
2023-02-11T08:31:55.683Z,101769.28
2023-02-11T08:33:00.147Z,101774.82
2023-02-11T08:34:04.430Z,101766.16
2023-02-11T08:35:08.748Z,101773.21
2023-02-11T08:36:13.061Z,101762.25
2023-02-11T08:37:17.400Z,101765.7
2023-02-11T08:38:21.681Z,101766.48
2023-02-11T08:39:25.985Z,101762.05
2023-02-11T08:40:30.257Z,101763.73
2023-02-11T08:41:34.526Z,101755.81
2023-02-11T08:42:38.870Z,101759.84
2023-02-11T08:43:43.165Z,101759.98
2023-02-11T08:44:47.518Z,101762.02
2023-02-11T08:45:52.822Z,101753.5
2023-02-11T08:46:57.650Z,101755.64
2023-02-11T08:48:01.994Z,101766.36
2023-02-11T08:49:06.279Z,101754.51
2023-02-11T08:50:10.571Z,101750.69
2023-02-11T08:51:14.962Z,101755.75
2023-02-11T08:52:19.431Z,101743.63
2023-02-11T08:53:23.770Z,101745.6
2023-02-11T08:54:28.109Z,101743.25
2023-02-11T08:55:32.398Z,101743.6
2023-02-11T08:56:36.721Z,101740.09
2023-02-11T08:57:41.011Z,101745.81
2023-02-11T08:58:45.318Z,101741.43
2023-02-11T08:59:49.641Z,101744.49
2023-02-11T09:00:54.690Z,101742.29
2023-02-11T09:01:59.144Z,101755.69
2023-02-11T09:03:03.510Z,101750.38
2023-02-11T09:04:07.800Z,101747.64
2023-02-11T09:05:12.066Z,101740.02
2023-02-11T09:06:16.547Z,101741.48
2023-02-11T09:07:20.840Z,101739.6
2023-02-11T09:08:25.236Z,101742.05
2023-02-11T09:09:29.534Z,101729.88
2023-02-11T09:10:34.058Z,101732.34
2023-02-11T09:11:38.391Z,101743.95
2023-02-11T09:12:42.725Z,101731
2023-02-11T09:13:47.056Z,101716.47
2023-02-11T09:14:51.376Z,101699.53
2023-02-11T09:15:55.649Z,101711.11
2023-02-11T09:17:00.145Z,101719.36
2023-02-11T09:18:04.648Z,101715.13
2023-02-11T09:19:09.239Z,101704.27
2023-02-11T09:20:13.528Z,101723.17
2023-02-11T09:21:17.802Z,101725.88
2023-02-11T09:22:22.129Z,101721.39
2023-02-11T09:23:26.484Z,101718.44
2023-02-11T09:24:30.810Z,101728.95
2023-02-11T09:25:35.160Z,101734.82
2023-02-11T09:26:39.454Z,101739.41
2023-02-11T09:27:43.732Z,101760.17
2023-02-11T09:28:48.342Z,101755.02
2023-02-11T09:29:52.631Z,101748.97
2023-02-11T09:30:57.247Z,101757.22
2023-02-11T09:32:02.133Z,101754.27
2023-02-11T09:33:06.672Z,101742.86
2023-02-11T09:34:11.040Z,101744.34
2023-02-11T09:35:15.373Z,101743.19
2023-02-11T09:36:19.679Z,101734.38
2023-02-11T09:37:23.972Z,101740.1
2023-02-11T09:38:28.321Z,101737.81
2023-02-11T09:39:32.596Z,101746.01
2023-02-11T09:40:36.906Z,101736.2
2023-02-11T09:41:41.215Z,101713.53
2023-02-11T09:42:45.528Z,101729.68
2023-02-11T09:43:49.914Z,101730.19
2023-02-11T09:44:54.195Z,101738.17
2023-02-11T09:45:58.654Z,101737.81
2023-02-11T09:47:03.023Z,101736.89
2023-02-11T09:48:07.565Z,101731.12
2023-02-11T09:49:11.913Z,101728.44
2023-02-11T09:50:16.264Z,101733.34
2023-02-11T09:51:20.591Z,101736.03
2023-02-11T09:52:24.858Z,101725.3
2023-02-11T09:53:29.240Z,101738.35
2023-02-11T09:54:33.531Z,101732.52
2023-02-11T09:55:38.040Z,101743.3
2023-02-11T09:56:42.352Z,101736.3
2023-02-11T09:57:46.664Z,101726.2
2023-02-11T09:58:50.981Z,101727.19
2023-02-11T09:59:55.306Z,101726.47
2023-02-11T10:00:59.767Z,101721.56
2023-02-11T10:02:04.097Z,101718.8
2023-02-11T10:03:08.420Z,101713.55
2023-02-11T10:04:12.905Z,101707.48
2023-02-11T10:05:17.312Z,101721.5
2023-02-11T10:06:21.681Z,101711.5
2023-02-11T10:07:25.997Z,101717.91
2023-02-11T10:08:30.285Z,101723.73
2023-02-11T10:09:34.553Z,101720.7
2023-02-11T10:10:38.936Z,101735.03
2023-02-11T10:11:43.243Z,101723.89
2023-02-11T10:12:47.560Z,101723.74
2023-02-11T10:13:51.912Z,101724.99
2023-02-11T10:14:56.220Z,101732.5
2023-02-11T10:16:00.728Z,101725.34
2023-02-11T10:17:05.157Z,101721.06
2023-02-11T10:18:09.433Z,101711.23
2023-02-11T10:19:13.766Z,101710.41
2023-02-11T10:20:18.339Z,101704.12
2023-02-11T10:21:22.622Z,101686.58
2023-02-11T10:22:26.915Z,101695.45
2023-02-11T10:23:31.234Z,101714
2023-02-11T10:24:35.549Z,101719.09
2023-02-11T10:25:39.829Z,101709.56
2023-02-11T10:26:44.917Z,101706.59
2023-02-11T10:27:49.257Z,101715.77
2023-02-11T10:28:53.770Z,101712.52
2023-02-11T10:29:58.153Z,101706.32
2023-02-11T10:31:02.768Z,101696.79
2023-02-11T10:32:07.477Z,101696.44
2023-02-11T10:33:11.924Z,101697.36
2023-02-11T10:34:16.236Z,101699.98
2023-02-11T10:35:20.556Z,101688.9
2023-02-11T10:36:24.849Z,101681.96
2023-02-11T10:37:29.163Z,101691.44
2023-02-11T10:38:33.454Z,101695.09
2023-02-11T10:39:37.738Z,101670.98
2023-02-11T10:40:42.013Z,101682.95
2023-02-11T10:41:46.324Z,101669.81
2023-02-11T10:42:52.016Z,101683.03
2023-02-11T10:43:59.169Z,101677.94
2023-02-11T10:45:03.551Z,101675.5
2023-02-11T10:46:07.977Z,101666.48
2023-02-11T10:47:12.455Z,101670.77
2023-02-11T10:48:17.528Z,101674.75
2023-02-11T10:49:21.820Z,101679.27
2023-02-11T10:50:26.101Z,101676.38
2023-02-11T10:51:30.440Z,101678.97
2023-02-11T10:52:35.822Z,101679.27
2023-02-11T10:53:40.179Z,101667.98
2023-02-11T10:54:44.469Z,101669.2
2023-02-11T10:55:48.764Z,101671.38
2023-02-11T10:56:53.110Z,101658.68
2023-02-11T10:57:57.420Z,101639.79
2023-02-11T10:59:01.781Z,101639.28
2023-02-11T11:00:06.087Z,101642.26
2023-02-11T11:01:25.324Z,101632.01
2023-02-11T11:02:29.725Z,101643.18
2023-02-11T11:03:33.984Z,101646.76
2023-02-11T11:04:38.471Z,101660.52
2023-02-11T11:05:42.823Z,101662.48
2023-02-11T11:06:47.093Z,101659.75
2023-02-11T11:07:51.396Z,101646.63
2023-02-11T11:08:55.668Z,101621.38
2023-02-11T11:09:59.967Z,101621.8
2023-02-11T11:11:04.249Z,101625.41
2023-02-11T11:12:08.590Z,101637.11
2023-02-11T11:13:12.886Z,101634.84
2023-02-11T11:14:17.196Z,101626.3
2023-02-11T11:15:21.476Z,101632.94
2023-02-11T11:16:26.014Z,101625.88
2023-02-11T11:17:30.497Z,101611.34
2023-02-11T11:18:35.854Z,101609.5
2023-02-11T11:19:40.155Z,101604.34
2023-02-11T11:20:44.486Z,101603.02
2023-02-11T11:21:48.759Z,101599.63
2023-02-11T11:22:53.082Z,101586.37
2023-02-11T11:23:57.529Z,101589.83
2023-02-11T11:25:01.948Z,101591.31
2023-02-11T11:26:06.238Z,101591.08
2023-02-11T11:27:10.522Z,101588.68
2023-02-11T11:28:15.113Z,101587.2
2023-02-11T11:29:19.513Z,101600.01
2023-02-11T11:30:23.832Z,101604.39
2023-02-11T11:31:28.481Z,101602.28
2023-02-11T11:32:32.992Z,101594.01
2023-02-11T11:33:37.295Z,101594.07
2023-02-11T11:34:41.598Z,101598.52
2023-02-11T11:35:45.951Z,101601.25
2023-02-11T11:36:50.282Z,101589.34
2023-02-11T11:37:54.580Z,101595.77
2023-02-11T11:38:58.854Z,101588.56
2023-02-11T11:40:03.185Z,101592.02
2023-02-11T11:41:07.532Z,101589.28
2023-02-11T11:42:11.849Z,101581.3
2023-02-11T11:43:16.219Z,101591.66
2023-02-11T11:44:20.504Z,101587.52
2023-02-11T11:45:24.813Z,101590.05
2023-02-11T11:46:29.284Z,101582.25
2023-02-11T11:47:33.673Z,101584.86
2023-02-11T11:48:37.982Z,101568.22
2023-02-11T11:49:42.270Z,101574.34
2023-02-11T11:50:46.548Z,101555.53
2023-02-11T11:51:50.980Z,101561.15
2023-02-11T11:52:55.261Z,101563.3
2023-02-11T11:53:59.607Z,101570.19
2023-02-11T11:55:03.911Z,101569.27
2023-02-11T11:56:08.359Z,101577.13
2023-02-11T11:57:12.680Z,101570.23
2023-02-11T11:58:16.962Z,101572.83
2023-02-11T11:59:21.274Z,101583.2
2023-02-11T12:00:25.549Z,101587.77
2023-02-11T12:01:29.830Z,101599.36
2023-02-11T12:02:34.135Z,101595.34
2023-02-11T12:03:38.473Z,101600.91
2023-02-11T12:04:42.764Z,101592.5
2023-02-11T12:05:47.021Z,101609.81
2023-02-11T12:06:51.380Z,101601.55
2023-02-11T12:07:55.679Z,101607.84
2023-02-11T12:08:59.990Z,101608.25
2023-02-11T12:10:04.271Z,101611.56
2023-02-11T12:11:08.594Z,101613.06
2023-02-11T12:12:12.939Z,101604.92
2023-02-11T12:13:17.231Z,101608.95
2023-02-11T12:14:21.533Z,101604.92
2023-02-11T12:15:25.903Z,101614.31
2023-02-11T12:16:30.386Z,101613.95
2023-02-11T12:17:34.734Z,101619.05
2023-02-11T12:18:39.051Z,101623.55
2023-02-11T12:19:43.355Z,101627.22